sensor_id;sensor_type;location;lat;lon;timestamp;temperature;humidity
27114;DHT22;14648;49.730;8.614;2023-04-03T00:01:19;5.00;56.80
27114;DHT22;14648;49.730;8.614;2023-04-03T00:03:45;4.90;56.80
27114;DHT22;14648;49.730;8.614;2023-04-03T00:06:11;4.90;56.80
27114;DHT22;14648;49.730;8.614;2023-04-03T00:08:38;4.90;56.80
27114;DHT22;14648;49.730;8.614;2023-04-03T00:11:05;4.80;56.80
27114;DHT22;14648;49.730;8.614;2023-04-03T00:13:32;4.80;56.70
27114;DHT22;14648;49.730;8.614;2023-04-03T00:15:58;4.70;56.90
27114;DHT22;14648;49.730;8.614;2023-04-03T00:18:24;4.70;56.90
27114;DHT22;14648;49.730;8.614;2023-04-03T00:20:50;4.70;56.90
27114;DHT22;14648;49.730;8.614;2023-04-03T00:23:16;4.60;56.80
27114;DHT22;14648;49.730;8.614;2023-04-03T00:25:42;4.70;56.90
27114;DHT22;14648;49.730;8.614;2023-04-03T00:28:08;4.60;56.80
27114;DHT22;14648;49.730;8.614;2023-04-03T00:30:35;4.60;56.80
27114;DHT22;14648;49.730;8.614;2023-04-03T00:33:01;4.50;56.80
27114;DHT22;14648;49.730;8.614;2023-04-03T00:35:27;4.50;56.80
27114;DHT22;14648;49.730;8.614;2023-04-03T00:37:54;4.50;56.90
27114;DHT22;14648;49.730;8.614;2023-04-03T00:40:23;4.40;56.90
27114;DHT22;14648;49.730;8.614;2023-04-03T00:42:54;4.40;56.90
27114;DHT22;14648;49.730;8.614;2023-04-03T00:47:54;4.40;56.90
27114;DHT22;14648;49.730;8.614;2023-04-03T00:50:20;4.30;56.90
27114;DHT22;14648;49.730;8.614;2023-04-03T00:52:46;4.30;57.00
27114;DHT22;14648;49.730;8.614;2023-04-03T00:55:14;4.30;57.00
27114;DHT22;14648;49.730;8.614;2023-04-03T00:57:41;4.30;57.00
27114;DHT22;14648;49.730;8.614;2023-04-03T01:00:10;4.20;57.00
27114;DHT22;14648;49.730;8.614;2023-04-03T01:02:38;4.10;57.00
27114;DHT22;14648;49.730;8.614;2023-04-03T01:05:06;4.10;57.20
27114;DHT22;14648;49.730;8.614;2023-04-03T01:07:32;4.10;57.20
27114;DHT22;14648;49.730;8.614;2023-04-03T01:10:07;4.10;57.20
27114;DHT22;14648;49.730;8.614;2023-04-03T01:12:37;4.10;57.20
27114;DHT22;14648;49.730;8.614;2023-04-03T01:15:07;4.10;57.20
27114;DHT22;14648;49.730;8.614;2023-04-03T01:17:46;4.00;57.10
27114;DHT22;14648;49.730;8.614;2023-04-03T01:25:38;4.00;57.20
27114;DHT22;14648;49.730;8.614;2023-04-03T01:28:08;3.90;57.20
27114;DHT22;14648;49.730;8.614;2023-04-03T01:30:59;3.90;57.20
27114;DHT22;14648;49.730;8.614;2023-04-03T01:33:28;3.90;57.20
27114;DHT22;14648;49.730;8.614;2023-04-03T01:35:54;3.90;57.20
27114;DHT22;14648;49.730;8.614;2023-04-03T01:38:20;3.80;57.20
27114;DHT22;14648;49.730;8.614;2023-04-03T01:40:46;3.80;57.20
27114;DHT22;14648;49.730;8.614;2023-04-03T01:43:12;3.80;57.30
27114;DHT22;14648;49.730;8.614;2023-04-03T01:45:37;3.70;57.40
27114;DHT22;14648;49.730;8.614;2023-04-03T01:48:03;3.80;57.40
27114;DHT22;14648;49.730;8.614;2023-04-03T01:50:29;3.70;57.40
27114;DHT22;14648;49.730;8.614;2023-04-03T01:52:55;3.60;57.40
27114;DHT22;14648;49.730;8.614;2023-04-03T01:55:21;3.60;57.40
27114;DHT22;14648;49.730;8.614;2023-04-03T01:57:47;3.60;57.50
27114;DHT22;14648;49.730;8.614;2023-04-03T02:00:13;3.60;57.60
27114;DHT22;14648;49.730;8.614;2023-04-03T02:02:39;3.60;57.60
27114;DHT22;14648;49.730;8.614;2023-04-03T02:05:05;3.50;57.60
27114;DHT22;14648;49.730;8.614;2023-04-03T02:07:31;3.50;57.70
27114;DHT22;14648;49.730;8.614;2023-04-03T02:09:57;3.50;57.70
27114;DHT22;14648;49.730;8.614;2023-04-03T02:12:23;3.40;57.70
27114;DHT22;14648;49.730;8.614;2023-04-03T02:14:48;3.40;57.70
27114;DHT22;14648;49.730;8.614;2023-04-03T02:17:14;3.40;57.60
27114;DHT22;14648;49.730;8.614;2023-04-03T02:19:40;3.40;57.60
27114;DHT22;14648;49.730;8.614;2023-04-03T02:22:06;3.40;57.60
27114;DHT22;14648;49.730;8.614;2023-04-03T02:24:32;3.40;57.70
27114;DHT22;14648;49.730;8.614;2023-04-03T02:26:58;3.40;57.70
27114;DHT22;14648;49.730;8.614;2023-04-03T02:29:24;3.30;57.70
27114;DHT22;14648;49.730;8.614;2023-04-03T02:31:50;3.30;57.60
27114;DHT22;14648;49.730;8.614;2023-04-03T02:34:16;3.30;57.70
27114;DHT22;14648;49.730;8.614;2023-04-03T02:36:42;3.30;57.70
27114;DHT22;14648;49.730;8.614;2023-04-03T02:39:08;3.20;57.60
27114;DHT22;14648;49.730;8.614;2023-04-03T02:41:34;3.20;57.70
27114;DHT22;14648;49.730;8.614;2023-04-03T02:44:02;3.20;57.70
27114;DHT22;14648;49.730;8.614;2023-04-03T02:46:28;3.20;57.80
27114;DHT22;14648;49.730;8.614;2023-04-03T02:48:54;3.10;57.90
27114;DHT22;14648;49.730;8.614;2023-04-03T02:51:19;3.10;57.80
27114;DHT22;14648;49.730;8.614;2023-04-03T02:53:45;3.10;57.90
27114;DHT22;14648;49.730;8.614;2023-04-03T02:56:11;3.10;58.00
27114;DHT22;14648;49.730;8.614;2023-04-03T02:58:37;3.10;58.00
27114;DHT22;14648;49.730;8.614;2023-04-03T03:01:03;3.10;58.00
27114;DHT22;14648;49.730;8.614;2023-04-03T03:03:28;3.00;58.10
27114;DHT22;14648;49.730;8.614;2023-04-03T03:06:05;3.10;58.00
27114;DHT22;14648;49.730;8.614;2023-04-03T03:08:40;3.10;58.10
27114;DHT22;14648;49.730;8.614;2023-04-03T03:11:06;3.00;58.00
27114;DHT22;14648;49.730;8.614;2023-04-03T03:13:32;3.00;58.00
27114;DHT22;14648;49.730;8.614;2023-04-03T03:15:58;3.00;58.00
27114;DHT22;14648;49.730;8.614;2023-04-03T03:18:24;2.90;58.10
27114;DHT22;14648;49.730;8.614;2023-04-03T03:20:55;3.00;58.20
27114;DHT22;14648;49.730;8.614;2023-04-03T03:23:23;3.00;58.20
27114;DHT22;14648;49.730;8.614;2023-04-03T03:25:55;2.90;58.20
27114;DHT22;14648;49.730;8.614;2023-04-03T03:28:25;2.90;59.00
27114;DHT22;14648;49.730;8.614;2023-04-03T03:30:51;2.90;58.20
27114;DHT22;14648;49.730;8.614;2023-04-03T03:33:17;2.90;58.20
27114;DHT22;14648;49.730;8.614;2023-04-03T03:35:44;2.80;58.20
27114;DHT22;14648;49.730;8.614;2023-04-03T03:38:10;2.80;58.30
27114;DHT22;14648;49.730;8.614;2023-04-03T03:40:36;2.80;58.30
27114;DHT22;14648;49.730;8.614;2023-04-03T03:43:02;2.80;58.40
27114;DHT22;14648;49.730;8.614;2023-04-03T03:45:27;2.80;58.30
27114;DHT22;14648;49.730;8.614;2023-04-03T03:47:53;2.80;58.40
27114;DHT22;14648;49.730;8.614;2023-04-03T03:50:22;2.80;58.40
27114;DHT22;14648;49.730;8.614;2023-04-03T03:52:47;2.70;58.40
27114;DHT22;14648;49.730;8.614;2023-04-03T03:55:13;2.70;58.40
27114;DHT22;14648;49.730;8.614;2023-04-03T03:57:39;2.70;58.50
27114;DHT22;14648;49.730;8.614;2023-04-03T04:00:06;2.70;58.50
27114;DHT22;14648;49.730;8.614;2023-04-03T04:02:32;2.70;58.40
27114;DHT22;14648;49.730;8.614;2023-04-03T04:04:58;2.70;58.50
27114;DHT22;14648;49.730;8.614;2023-04-03T04:07:24;2.70;58.50
27114;DHT22;14648;49.730;8.614;2023-04-03T04:09:49;2.60;58.40
27114;DHT22;14648;49.730;8.614;2023-04-03T04:12:15;2.60;58.40
27114;DHT22;14648;49.730;8.614;2023-04-03T04:14:41;2.60;58.30
27114;DHT22;14648;49.730;8.614;2023-04-03T04:17:07;2.60;58.40
27114;DHT22;14648;49.730;8.614;2023-04-03T04:19:33;2.60;58.30
27114;DHT22;14648;49.730;8.614;2023-04-03T04:21:58;2.60;58.40
27114;DHT22;14648;49.730;8.614;2023-04-03T04:24:24;2.60;58.40
27114;DHT22;14648;49.730;8.614;2023-04-03T04:26:50;2.60;58.40
27114;DHT22;14648;49.730;8.614;2023-04-03T04:29:16;2.60;58.30
27114;DHT22;14648;49.730;8.614;2023-04-03T04:31:41;2.60;58.40
27114;DHT22;14648;49.730;8.614;2023-04-03T04:34:07;2.60;58.40
27114;DHT22;14648;49.730;8.614;2023-04-03T04:36:33;2.60;58.50
27114;DHT22;14648;49.730;8.614;2023-04-03T04:38:59;2.50;58.50
27114;DHT22;14648;49.730;8.614;2023-04-03T04:41:24;2.50;58.60
27114;DHT22;14648;49.730;8.614;2023-04-03T04:43:51;2.50;58.70
27114;DHT22;14648;49.730;8.614;2023-04-03T04:46:18;2.50;58.70
27114;DHT22;14648;49.730;8.614;2023-04-03T04:48:44;2.50;58.70
27114;DHT22;14648;49.730;8.614;2023-04-03T04:51:10;2.50;58.70
27114;DHT22;14648;49.730;8.614;2023-04-03T04:53:36;2.50;58.70
27114;DHT22;14648;49.730;8.614;2023-04-03T04:56:02;2.50;58.70
27114;DHT22;14648;49.730;8.614;2023-04-03T04:58:28;2.50;58.70
27114;DHT22;14648;49.730;8.614;2023-04-03T05:01:05;2.50;58.70
27114;DHT22;14648;49.730;8.614;2023-04-03T05:03:33;2.50;58.70
27114;DHT22;14648;49.730;8.614;2023-04-03T05:05:59;2.50;58.60
27114;DHT22;14648;49.730;8.614;2023-04-03T05:08:25;2.60;58.60
27114;DHT22;14648;49.730;8.614;2023-04-03T05:10:51;2.60;58.70
27114;DHT22;14648;49.730;8.614;2023-04-03T05:13:18;2.60;58.70
27114;DHT22;14648;49.730;8.614;2023-04-03T05:15:45;2.60;58.70
27114;DHT22;14648;49.730;8.614;2023-04-03T05:18:11;2.60;58.70
27114;DHT22;14648;49.730;8.614;2023-04-03T05:20:37;2.70;58.80
27114;DHT22;14648;49.730;8.614;2023-04-03T05:23:03;2.70;58.80
27114;DHT22;14648;49.730;8.614;2023-04-03T05:25:29;2.70;58.90
27114;DHT22;14648;49.730;8.614;2023-04-03T05:27:55;2.70;58.90
27114;DHT22;14648;49.730;8.614;2023-04-03T05:30:21;2.80;58.90
27114;DHT22;14648;49.730;8.614;2023-04-03T05:32:47;2.80;58.90
27114;DHT22;14648;49.730;8.614;2023-04-03T05:35:13;2.80;59.00
27114;DHT22;14648;49.730;8.614;2023-04-03T05:37:39;2.90;59.00
27114;DHT22;14648;49.730;8.614;2023-04-03T05:40:05;2.90;59.10
27114;DHT22;14648;49.730;8.614;2023-04-03T05:42:32;2.90;59.10
27114;DHT22;14648;49.730;8.614;2023-04-03T05:44:58;3.00;59.10
27114;DHT22;14648;49.730;8.614;2023-04-03T05:47:24;3.00;59.10
27114;DHT22;14648;49.730;8.614;2023-04-03T05:49:50;3.10;59.20
27114;DHT22;14648;49.730;8.614;2023-04-03T05:52:26;3.10;59.20
27114;DHT22;14648;49.730;8.614;2023-04-03T05:54:54;3.10;59.30
27114;DHT22;14648;49.730;8.614;2023-04-03T05:57:20;3.20;59.30
27114;DHT22;14648;49.730;8.614;2023-04-03T05:59:47;3.20;59.30
27114;DHT22;14648;49.730;8.614;2023-04-03T06:02:16;3.20;59.30
27114;DHT22;14648;49.730;8.614;2023-04-03T06:04:44;3.30;59.50
27114;DHT22;14648;49.730;8.614;2023-04-03T06:07:17;3.30;59.50
27114;DHT22;14648;49.730;8.614;2023-04-03T06:09:46;3.30;59.60
27114;DHT22;14648;49.730;8.614;2023-04-03T06:12:13;3.40;59.60
27114;DHT22;14648;49.730;8.614;2023-04-03T06:14:38;3.40;59.60
27114;DHT22;14648;49.730;8.614;2023-04-03T06:17:04;3.40;59.60
27114;DHT22;14648;49.730;8.614;2023-04-03T06:19:31;3.50;59.80
27114;DHT22;14648;49.730;8.614;2023-04-03T06:21:57;3.60;59.80
27114;DHT22;14648;49.730;8.614;2023-04-03T06:24:23;3.60;59.80
27114;DHT22;14648;49.730;8.614;2023-04-03T06:26:51;3.70;59.90
27114;DHT22;14648;49.730;8.614;2023-04-03T06:29:18;3.80;59.90
27114;DHT22;14648;49.730;8.614;2023-04-03T06:31:45;3.90;60.10
27114;DHT22;14648;49.730;8.614;2023-04-03T06:34:12;4.00;60.20
27114;DHT22;14648;49.730;8.614;2023-04-03T06:36:39;4.10;60.40
27114;DHT22;14648;49.730;8.614;2023-04-03T06:39:05;4.20;60.60
27114;DHT22;14648;49.730;8.614;2023-04-03T06:41:32;4.30;60.80
27114;DHT22;14648;49.730;8.614;2023-04-03T06:43:58;4.40;60.80
27114;DHT22;14648;49.730;8.614;2023-04-03T06:46:26;4.40;61.10
27114;DHT22;14648;49.730;8.614;2023-04-03T06:48:52;4.60;61.30
27114;DHT22;14648;49.730;8.614;2023-04-03T06:53:49;4.80;61.70
27114;DHT22;14648;49.730;8.614;2023-04-03T06:56:16;4.90;62.00
27114;DHT22;14648;49.730;8.614;2023-04-03T06:58:43;5.00;62.10
27114;DHT22;14648;49.730;8.614;2023-04-03T07:01:10;5.10;62.20
27114;DHT22;14648;49.730;8.614;2023-04-03T07:03:37;5.20;62.20
27114;DHT22;14648;49.730;8.614;2023-04-03T07:06:05;5.30;62.50
27114;DHT22;14648;49.730;8.614;2023-04-03T07:08:33;5.40;62.60
27114;DHT22;14648;49.730;8.614;2023-04-03T07:10:59;5.60;62.70
27114;DHT22;14648;49.730;8.614;2023-04-03T07:13:25;5.80;62.70
27114;DHT22;14648;49.730;8.614;2023-04-03T07:15:52;6.00;62.60
27114;DHT22;14648;49.730;8.614;2023-04-03T07:18:18;6.30;62.60
27114;DHT22;14648;49.730;8.614;2023-04-03T07:20:44;6.60;62.30
27114;DHT22;14648;49.730;8.614;2023-04-03T07:23:10;6.80;62.10
27114;DHT22;14648;49.730;8.614;2023-04-03T07:25:40;7.00;61.70
27114;DHT22;14648;49.730;8.614;2023-04-03T07:28:08;7.20;61.50
27114;DHT22;14648;49.730;8.614;2023-04-03T07:30:34;7.30;61.50
27114;DHT22;14648;49.730;8.614;2023-04-03T07:33:00;7.60;61.40
27114;DHT22;14648;49.730;8.614;2023-04-03T07:35:27;7.70;61.00
27114;DHT22;14648;49.730;8.614;2023-04-03T07:37:52;7.80;61.00
27114;DHT22;14648;49.730;8.614;2023-04-03T07:40:18;8.00;60.80
27114;DHT22;14648;49.730;8.614;2023-04-03T07:42:44;8.10;60.70
27114;DHT22;14648;49.730;8.614;2023-04-03T07:45:10;8.20;60.60
27114;DHT22;14648;49.730;8.614;2023-04-03T07:47:36;8.30;60.50
27114;DHT22;14648;49.730;8.614;2023-04-03T07:50:02;8.40;60.30
27114;DHT22;14648;49.730;8.614;2023-04-03T07:52:28;8.50;60.00
27114;DHT22;14648;49.730;8.614;2023-04-03T07:54:53;8.60;59.60
27114;DHT22;14648;49.730;8.614;2023-04-03T07:57:19;8.80;59.40
27114;DHT22;14648;49.730;8.614;2023-04-03T07:59:45;8.90;59.00
27114;DHT22;14648;49.730;8.614;2023-04-03T08:02:11;8.90;58.40
27114;DHT22;14648;49.730;8.614;2023-04-03T08:04:38;8.90;58.00
27114;DHT22;14648;49.730;8.614;2023-04-03T08:07:04;9.00;57.20
27114;DHT22;14648;49.730;8.614;2023-04-03T08:09:30;8.90;56.70
27114;DHT22;14648;49.730;8.614;2023-04-03T08:11:57;8.90;56.90
27114;DHT22;14648;49.730;8.614;2023-04-03T08:14:23;8.90;56.70
27114;DHT22;14648;49.730;8.614;2023-04-03T08:16:50;9.10;56.60
27114;DHT22;14648;49.730;8.614;2023-04-03T08:19:16;9.20;55.80
27114;DHT22;14648;49.730;8.614;2023-04-03T08:21:43;9.30;55.30
27114;DHT22;14648;49.730;8.614;2023-04-03T08:24:10;9.50;55.00
27114;DHT22;14648;49.730;8.614;2023-04-03T08:26:36;9.60;54.00
27114;DHT22;14648;49.730;8.614;2023-04-03T08:29:02;9.60;53.80
27114;DHT22;14648;49.730;8.614;2023-04-03T08:31:28;9.70;53.60
27114;DHT22;14648;49.730;8.614;2023-04-03T08:33:54;9.80;53.40
27114;DHT22;14648;49.730;8.614;2023-04-03T08:36:27;9.80;53.00
27114;DHT22;14648;49.730;8.614;2023-04-03T08:38:56;9.80;52.80
27114;DHT22;14648;49.730;8.614;2023-04-03T08:44:21;9.90;51.00
27114;DHT22;14648;49.730;8.614;2023-04-03T08:49:47;10.10;51.40
27114;DHT22;14648;49.730;8.614;2023-04-03T08:55:38;10.50;49.80
27114;DHT22;14648;49.730;8.614;2023-04-03T09:03:44;10.10;49.80
27114;DHT22;14648;49.730;8.614;2023-04-03T09:12:09;10.10;49.40
27114;DHT22;14648;49.730;8.614;2023-04-03T09:15:10;10.30;48.60
27114;DHT22;14648;49.730;8.614;2023-04-03T09:20:22;10.50;48.50
27114;DHT22;14648;49.730;8.614;2023-04-03T09:22:52;10.50;48.10
27114;DHT22;14648;49.730;8.614;2023-04-03T09:25:33;10.60;47.80
27114;DHT22;14648;49.730;8.614;2023-04-03T09:28:04;10.70;46.30
27114;DHT22;14648;49.730;8.614;2023-04-03T09:30:35;10.80;47.30
27114;DHT22;14648;49.730;8.614;2023-04-03T09:33:01;11.30;47.40
27114;DHT22;14648;49.730;8.614;2023-04-03T09:35:35;11.60;47.10
27114;DHT22;14648;49.730;8.614;2023-04-03T09:40:39;11.60;45.20
27114;DHT22;14648;49.730;8.614;2023-04-03T09:43:25;11.60;44.80
27114;DHT22;14648;49.730;8.614;2023-04-03T09:45:53;11.60;44.50
27114;DHT22;14648;49.730;8.614;2023-04-03T09:48:23;11.70;44.90
27114;DHT22;14648;49.730;8.614;2023-04-03T09:53:36;11.80;44.00
27114;DHT22;14648;49.730;8.614;2023-04-03T09:59:13;12.10;43.20
27114;DHT22;14648;49.730;8.614;2023-04-03T10:01:43;12.30;43.30
27114;DHT22;14648;49.730;8.614;2023-04-03T10:04:22;12.50;42.80
27114;DHT22;14648;49.730;8.614;2023-04-03T10:06:54;12.60;42.70
27114;DHT22;14648;49.730;8.614;2023-04-03T10:09:29;12.70;42.20
27114;DHT22;14648;49.730;8.614;2023-04-03T10:12:10;12.80;41.60
27114;DHT22;14648;49.730;8.614;2023-04-03T10:14:58;12.70;40.70
27114;DHT22;14648;49.730;8.614;2023-04-03T10:18:00;12.50;40.90
27114;DHT22;14648;49.730;8.614;2023-04-03T10:20:39;12.30;40.80
27114;DHT22;14648;49.730;8.614;2023-04-03T10:23:17;12.10;40.70
27114;DHT22;14648;49.730;8.614;2023-04-03T10:34:46;12.50;40.10
27114;DHT22;14648;49.730;8.614;2023-04-03T10:39:58;12.50;39.90
27114;DHT22;14648;49.730;8.614;2023-04-03T10:45:03;12.50;39.80
27114;DHT22;14648;49.730;8.614;2023-04-03T10:53:45;13.80;38.40
27114;DHT22;14648;49.730;8.614;2023-04-03T10:59:25;13.40;36.90
27114;DHT22;14648;49.730;8.614;2023-04-03T11:01:57;13.10;37.80
27114;DHT22;14648;49.730;8.614;2023-04-03T11:04:33;13.10;38.10
27114;DHT22;14648;49.730;8.614;2023-04-03T11:07:08;13.20;37.90
27114;DHT22;14648;49.730;8.614;2023-04-03T11:09:41;13.10;37.70
27114;DHT22;14648;49.730;8.614;2023-04-03T11:12:26;13.10;37.80
27114;DHT22;14648;49.730;8.614;2023-04-03T11:15:16;12.90;37.40
27114;DHT22;14648;49.730;8.614;2023-04-03T11:17:51;12.70;37.40
27114;DHT22;14648;49.730;8.614;2023-04-03T11:20:27;12.50;37.50
27114;DHT22;14648;49.730;8.614;2023-04-03T11:23:01;12.30;37.50
27114;DHT22;14648;49.730;8.614;2023-04-03T11:25:31;12.10;37.80
27114;DHT22;14648;49.730;8.614;2023-04-03T11:28:04;12.00;38.00
27114;DHT22;14648;49.730;8.614;2023-04-03T11:30:57;12.10;38.10
27114;DHT22;14648;49.730;8.614;2023-04-03T11:36:24;12.40;37.40
27114;DHT22;14648;49.730;8.614;2023-04-03T11:38:57;12.30;36.80
27114;DHT22;14648;49.730;8.614;2023-04-03T11:41:33;12.10;36.60
27114;DHT22;14648;49.730;8.614;2023-04-03T11:44:05;12.00;36.40
27114;DHT22;14648;49.730;8.614;2023-04-03T11:46:55;11.80;36.60
27114;DHT22;14648;49.730;8.614;2023-04-03T12:08:29;12.70;37.80
27114;DHT22;14648;49.730;8.614;2023-04-03T12:16:26;13.70;36.00
27114;DHT22;14648;49.730;8.614;2023-04-03T12:30:00;13.10;35.30
27114;DHT22;14648;49.730;8.614;2023-04-03T12:33:03;12.80;34.90
27114;DHT22;14648;49.730;8.614;2023-04-03T12:35:43;12.70;34.80
27114;DHT22;14648;49.730;8.614;2023-04-03T12:42:12;13.10;35.40
27114;DHT22;14648;49.730;8.614;2023-04-03T12:45:17;13.10;34.80
27114;DHT22;14648;49.730;8.614;2023-04-03T12:47:45;13.00;34.50
27114;DHT22;14648;49.730;8.614;2023-04-03T12:50:32;12.90;34.80
27114;DHT22;14648;49.730;8.614;2023-04-03T12:53:05;12.70;34.20
27114;DHT22;14648;49.730;8.614;2023-04-03T12:55:35;12.50;34.50
27114;DHT22;14648;49.730;8.614;2023-04-03T12:58:24;12.40;34.50
27114;DHT22;14648;49.730;8.614;2023-04-03T13:01:08;12.30;34.40
27114;DHT22;14648;49.730;8.614;2023-04-03T13:03:45;12.30;34.10
27114;DHT22;14648;49.730;8.614;2023-04-03T13:06:23;12.10;34.10
27114;DHT22;14648;49.730;8.614;2023-04-03T13:08:57;12.10;34.30
27114;DHT22;14648;49.730;8.614;2023-04-03T13:11:36;12.20;34.50
27114;DHT22;14648;49.730;8.614;2023-04-03T13:14:14;12.40;34.60
27114;DHT22;14648;49.730;8.614;2023-04-03T13:17:12;12.60;34.50
27114;DHT22;14648;49.730;8.614;2023-04-03T13:19:40;12.80;34.00
27114;DHT22;14648;49.730;8.614;2023-04-03T13:24:58;13.10;32.80
27114;DHT22;14648;49.730;8.614;2023-04-03T13:27:26;13.00;32.80
27114;DHT22;14648;49.730;8.614;2023-04-03T13:29:54;12.80;32.80
27114;DHT22;14648;49.730;8.614;2023-04-03T13:32:24;12.60;32.90
27114;DHT22;14648;49.730;8.614;2023-04-03T13:34:52;12.50;33.20
27114;DHT22;14648;49.730;8.614;2023-04-03T13:37:27;12.70;33.50
27114;DHT22;14648;49.730;8.614;2023-04-03T13:42:33;13.30;31.90
27114;DHT22;14648;49.730;8.614;2023-04-03T13:45:23;13.40;32.70
27114;DHT22;14648;49.730;8.614;2023-04-03T13:48:11;13.70;32.70
27114;DHT22;14648;49.730;8.614;2023-04-03T13:51:00;14.20;31.70
27114;DHT22;14648;49.730;8.614;2023-04-03T13:53:31;14.60;31.00
27114;DHT22;14648;49.730;8.614;2023-04-03T13:58:30;14.80;30.60
27114;DHT22;14648;49.730;8.614;2023-04-03T14:03:46;15.30;30.60
27114;DHT22;14648;49.730;8.614;2023-04-03T14:06:17;15.60;30.30
27114;DHT22;14648;49.730;8.614;2023-04-03T14:08:45;15.70;30.10
27114;DHT22;14648;49.730;8.614;2023-04-03T14:11:22;15.90;29.40
27114;DHT22;14648;49.730;8.614;2023-04-03T14:13:50;15.90;29.10
27114;DHT22;14648;49.730;8.614;2023-04-03T14:16:21;15.90;28.70
27114;DHT22;14648;49.730;8.614;2023-04-03T14:18:51;15.70;28.40
27114;DHT22;14648;49.730;8.614;2023-04-03T14:21:18;15.60;28.50
27114;DHT22;14648;49.730;8.614;2023-04-03T14:23:45;15.50;29.00
27114;DHT22;14648;49.730;8.614;2023-04-03T14:26:23;15.60;28.90
27114;DHT22;14648;49.730;8.614;2023-04-03T14:28:52;15.80;28.80
27114;DHT22;14648;49.730;8.614;2023-04-03T14:31:20;16.00;29.20
27114;DHT22;14648;49.730;8.614;2023-04-03T14:33:47;16.30;29.10
27114;DHT22;14648;49.730;8.614;2023-04-03T14:36:20;16.40;28.30
27114;DHT22;14648;49.730;8.614;2023-04-03T14:38:47;16.50;27.20
27114;DHT22;14648;49.730;8.614;2023-04-03T14:41:17;16.60;27.00
27114;DHT22;14648;49.730;8.614;2023-04-03T14:43:45;16.50;26.90
27114;DHT22;14648;49.730;8.614;2023-04-03T14:46:28;16.40;27.00
27114;DHT22;14648;49.730;8.614;2023-04-03T14:48:57;16.50;26.70
27114;DHT22;14648;49.730;8.614;2023-04-03T14:51:23;16.60;27.30
27114;DHT22;14648;49.730;8.614;2023-04-03T14:53:49;16.70;26.80
27114;DHT22;14648;49.730;8.614;2023-04-03T14:56:27;16.60;25.70
27114;DHT22;14648;49.730;8.614;2023-04-03T14:58:57;16.60;25.90
27114;DHT22;14648;49.730;8.614;2023-04-03T15:01:25;16.50;26.30
27114;DHT22;14648;49.730;8.614;2023-04-03T15:03:52;16.50;26.50
27114;DHT22;14648;49.730;8.614;2023-04-03T15:06:18;16.50;26.30
27114;DHT22;14648;49.730;8.614;2023-04-03T15:08:46;16.60;26.20
27114;DHT22;14648;49.730;8.614;2023-04-03T15:11:18;16.70;25.70
27114;DHT22;14648;49.730;8.614;2023-04-03T15:13:43;16.70;25.70
27114;DHT22;14648;49.730;8.614;2023-04-03T15:16:20;16.70;26.20
27114;DHT22;14648;49.730;8.614;2023-04-03T15:18:47;16.80;25.60
27114;DHT22;14648;49.730;8.614;2023-04-03T15:21:16;16.80;26.10
27114;DHT22;14648;49.730;8.614;2023-04-03T15:23:42;16.90;26.20
27114;DHT22;14648;49.730;8.614;2023-04-03T15:26:08;16.90;25.60
27114;DHT22;14648;49.730;8.614;2023-04-03T15:28:40;17.00;25.20
27114;DHT22;14648;49.730;8.614;2023-04-03T15:31:08;16.90;25.00
27114;DHT22;14648;49.730;8.614;2023-04-03T15:33:35;16.80;25.10
27114;DHT22;14648;49.730;8.614;2023-04-03T15:36:01;16.80;24.60
27114;DHT22;14648;49.730;8.614;2023-04-03T15:38:28;16.70;24.20
27114;DHT22;14648;49.730;8.614;2023-04-03T15:40:54;16.50;23.60
27114;DHT22;14648;49.730;8.614;2023-04-03T15:43:21;16.30;23.70
27114;DHT22;14648;49.730;8.614;2023-04-03T15:45:49;16.10;23.70
27114;DHT22;14648;49.730;8.614;2023-04-03T15:48:16;15.90;24.00
27114;DHT22;14648;49.730;8.614;2023-04-03T15:50:42;15.80;23.90
27114;DHT22;14648;49.730;8.614;2023-04-03T15:53:09;15.60;24.20
27114;DHT22;14648;49.730;8.614;2023-04-03T15:55:37;15.50;24.20
27114;DHT22;14648;49.730;8.614;2023-04-03T15:58:03;15.40;24.30
27114;DHT22;14648;49.730;8.614;2023-04-03T16:00:30;15.40;24.30
27114;DHT22;14648;49.730;8.614;2023-04-03T16:02:59;15.40;24.20
27114;DHT22;14648;49.730;8.614;2023-04-03T16:05:29;15.40;23.70
27114;DHT22;14648;49.730;8.614;2023-04-03T16:07:57;15.30;23.50
27114;DHT22;14648;49.730;8.614;2023-04-03T16:10:26;15.20;23.60
27114;DHT22;14648;49.730;8.614;2023-04-03T16:12:52;15.00;23.50
27114;DHT22;14648;49.730;8.614;2023-04-03T16:15:18;14.80;23.70
27114;DHT22;14648;49.730;8.614;2023-04-03T16:17:47;14.60;23.70
27114;DHT22;14648;49.730;8.614;2023-04-03T16:20:14;14.30;23.60
27114;DHT22;14648;49.730;8.614;2023-04-03T16:22:40;13.90;23.80
27114;DHT22;14648;49.730;8.614;2023-04-03T16:25:07;13.60;23.90
27114;DHT22;14648;49.730;8.614;2023-04-03T16:27:34;13.50;24.20
27114;DHT22;14648;49.730;8.614;2023-04-03T16:30:00;13.40;24.30
27114;DHT22;14648;49.730;8.614;2023-04-03T16:32:28;13.40;24.20
27114;DHT22;14648;49.730;8.614;2023-04-03T16:34:55;13.50;23.60
27114;DHT22;14648;49.730;8.614;2023-04-03T16:37:21;13.40;23.90
27114;DHT22;14648;49.730;8.614;2023-04-03T16:39:47;13.30;24.00
27114;DHT22;14648;49.730;8.614;2023-04-03T16:42:13;13.30;24.20
27114;DHT22;14648;49.730;8.614;2023-04-03T16:44:38;13.10;24.40
27114;DHT22;14648;49.730;8.614;2023-04-03T16:47:05;13.00;24.70
27114;DHT22;14648;49.730;8.614;2023-04-03T16:49:33;12.80;25.60
27114;DHT22;14648;49.730;8.614;2023-04-03T16:52:00;12.70;25.20
27114;DHT22;14648;49.730;8.614;2023-04-03T16:54:26;12.60;25.30
27114;DHT22;14648;49.730;8.614;2023-04-03T16:56:52;12.50;25.30
27114;DHT22;14648;49.730;8.614;2023-04-03T16:59:18;12.40;25.20
27114;DHT22;14648;49.730;8.614;2023-04-03T17:01:44;12.30;25.50
27114;DHT22;14648;49.730;8.614;2023-04-03T17:04:09;12.20;25.70
27114;DHT22;14648;49.730;8.614;2023-04-03T17:06:35;12.10;25.90
27114;DHT22;14648;49.730;8.614;2023-04-03T17:09:01;12.10;26.10
27114;DHT22;14648;49.730;8.614;2023-04-03T17:11:28;12.00;26.20
27114;DHT22;14648;49.730;8.614;2023-04-03T17:13:55;11.90;26.40
27114;DHT22;14648;49.730;8.614;2023-04-03T17:16:22;11.80;26.60
27114;DHT22;14648;49.730;8.614;2023-04-03T17:18:49;11.60;26.70
27114;DHT22;14648;49.730;8.614;2023-04-03T17:21:15;11.50;27.00
27114;DHT22;14648;49.730;8.614;2023-04-03T17:23:45;11.40;27.90
27114;DHT22;14648;49.730;8.614;2023-04-03T17:26:13;11.20;27.60
27114;DHT22;14648;49.730;8.614;2023-04-03T17:28:39;11.10;27.70
27114;DHT22;14648;49.730;8.614;2023-04-03T17:31:06;11.00;27.70
27114;DHT22;14648;49.730;8.614;2023-04-03T17:33:33;10.80;27.80
27114;DHT22;14648;49.730;8.614;2023-04-03T17:36:00;10.70;28.00
27114;DHT22;14648;49.730;8.614;2023-04-03T17:38:29;10.60;28.10
27114;DHT22;14648;49.730;8.614;2023-04-03T17:40:57;10.40;28.20
27114;DHT22;14648;49.730;8.614;2023-04-03T17:43:24;10.30;29.10
27114;DHT22;14648;49.730;8.614;2023-04-03T17:45:51;10.20;28.60
27114;DHT22;14648;49.730;8.614;2023-04-03T17:48:17;10.10;28.80
27114;DHT22;14648;49.730;8.614;2023-04-03T17:50:43;10.00;28.80